This is the latest recevied weather packets stored in our database for station/object IN3MWE-10. If no packets are shown the sender has not sent any weather packets the latest 10 day(s).
| Time | Temp. | Humidity | Pressure | Rain* | Wind** | Luminosity | Snow |
|---|---|---|---|---|---|---|---|
| 1788448820 | 38.33° C | 22% | 980.6 hPa | - | - | - | - |
| 1788447920 | 40° C | 19% | 980.5 hPa | - | - | - | - |
| 1788447020 | 40° C | 18% | 980.5 hPa | - | - | - | - |
| 1788446120 | 38.89° C | 17% | 980.3 hPa | - | - | - | - |
| 1788445220 | 40° C | 17% | 980.4 hPa | - | - | - | - |
| 1788444319 | 37.78° C | 18% | 980.6 hPa | - | - | - | - |
| 1788443419 | 36.67° C | 22% | 981.1 hPa | - | - | - | - |
| 1788442519 | 36.11° C | 21% | 981.5 hPa | - | - | - | - |
| 1788441619 | 32.78° C | 28% | 981.8 hPa | - | - | - | - |
| 1788440719 | 33.89° C | 25% | 981.8 hPa | - | - | - | - |
| 1788439819 | 32.78° C | 26% | 981.8 hPa | - | - | - | - |
| 1788438919 | 32.78° C | 27% | 982 hPa | - | - | - | - |
| 1788438018 | 32.78° C | 25% | 982.1 hPa | - | - | - | - |
| 1788437118 | 32.22° C | 26% | 982.3 hPa | - | - | - | - |
| 1788436218 | 32.78° C | 28% | 982.5 hPa | - | - | - | - |
| 1788435318 | 31.67° C | 30% | 982.9 hPa | - | - | - | - |
| 1788434418 | 32.78° C | 27% | 983.1 hPa | - | - | - | - |
| 1788433518 | 34.44° C | 26% | 983.2 hPa | - | - | - | - |
| 1788432618 | 34.44° C | 26% | 983.4 hPa | - | - | - | - |
| 1788431717 | 33.89° C | 27% | 983.8 hPa | - | - | - | - |
| 1788430817 | 31.67° C | 32% | 984.3 hPa | - | - | - | - |
| 1788429917 | 27.78° C | 39% | 984.5 hPa | - | - | - | - |
| 1788429017 | 27.78° C | 39% | 984.5 hPa | - | - | - | - |
| 1788428117 | 27.22° C | 41% | 984.7 hPa | - | - | - | - |
| 1788427217 | 26.11° C | 41% | 985 hPa | - | - | - | - |
* Rain since midnight (hover to see other rain measurements)
** Current wind speed in m/s (hover to see current wind gust speed)